Time;durP1;ratioP1;P1;durP2;ratioP2;P2;SDS_P1;SDS_P2;PMS_P1;PMS_P2;Temp;Humidity;BMP_temperature;BMP_pressure;BME280_temperature;BME280_humidity;BME280_pressure;Samples;Min_cycle;Max_cycle;Signal;HPM_P1;HPM_P2
2023/07/25 00:01:16;;;;;;;4.82;4.22;;;;;;;11.42;100.00;100438.44;5061362;28;20480;-81
2023/07/25 00:03:42;;;;;;;9.55;5.10;;;;;;;11.33;100.00;100433.25;5062947;28;20514;-81
2023/07/25 00:06:07;;;;;;;9.73;4.82;;;;;;;11.29;100.00;100431.22;5057816;28;20032;-82
2023/07/25 00:08:33;;;;;;;9.15;4.55;;;;;;;11.27;100.00;100427.91;5065304;28;20021;-82
2023/07/25 00:10:59;;;;;;;8.93;5.07;;;;;;;11.20;100.00;100441.38;5060914;28;20067;-83
2023/07/25 00:13:24;;;;;;;10.10;5.30;;;;;;;11.20;100.00;100447.63;5065026;28;20029;-82
2023/07/25 00:15:50;;;;;;;9.45;5.35;;;;;;;11.12;100.00;100441.63;5060277;28;20025;-81
2023/07/25 00:18:15;;;;;;;9.07;4.60;;;;;;;11.07;100.00;100448.47;5049257;28;20029;-81
2023/07/25 00:20:41;;;;;;;7.40;5.13;;;;;;;11.01;100.00;100452.00;5058719;28;20024;-81
2023/07/25 00:23:06;;;;;;;8.50;5.53;;;;;;;10.99;100.00;100448.69;5068981;28;20070;-81
2023/07/25 00:25:32;;;;;;;9.00;5.28;;;;;;;10.97;100.00;100448.06;5068457;28;20078;-83
2023/07/25 00:27:57;;;;;;;8.60;5.15;;;;;;;10.98;100.00;100446.22;5071670;28;20036;-82
2023/07/25 00:30:23;;;;;;;7.80;5.38;;;;;;;10.96;100.00;100454.47;5072252;28;20093;-82
2023/07/25 00:32:49;;;;;;;9.48;5.30;;;;;;;10.93;100.00;100457.63;5073846;28;20027;-83
2023/07/25 00:35:17;;;;;;;8.98;5.30;;;;;;;10.88;100.00;100449.31;5067479;28;20025;-82
2023/07/25 00:37:42;;;;;;;9.77;5.43;;;;;;;10.81;100.00;100449.34;5066335;28;20035;-83
2023/07/25 00:40:08;;;;;;;7.10;5.13;;;;;;;10.76;100.00;100454.50;5069235;28;20032;-82
2023/07/25 00:42:34;;;;;;;8.60;5.40;;;;;;;10.72;100.00;100451.41;5068966;28;20050;-82
2023/07/25 00:44:59;;;;;;;8.45;5.20;;;;;;;10.72;100.00;100456.78;5073985;28;20036;-82
2023/07/25 00:47:24;;;;;;;9.85;5.55;;;;;;;10.68;100.00;100462.81;5070696;28;20028;-82
2023/07/25 00:49:50;;;;;;;8.38;5.38;;;;;;;10.65;100.00;100461.34;5068471;28;20421;-83
2023/07/25 00:52:16;;;;;;;7.90;5.90;;;;;;;10.65;100.00;100466.72;5070925;28;20155;-82
2023/07/25 00:54:48;;;;;;;7.22;5.13;;;;;;;10.58;100.00;100464.03;5053837;28;20025;-82
2023/07/25 00:57:17;;;;;;;9.25;6.00;;;;;;;10.55;100.00;100466.31;5069376;28;20024;-83
2023/07/25 00:59:43;;;;;;;10.43;6.22;;;;;;;10.51;100.00;100467.75;5067759;28;20032;-82
2023/07/25 01:02:09;;;;;;;10.20;5.85;;;;;;;10.50;100.00;100475.00;5067291;28;20037;-83
2023/07/25 01:04:36;;;;;;;9.45;6.18;;;;;;;10.46;100.00;100471.88;5054367;28;20051;-82
2023/07/25 01:07:01;;;;;;;8.15;5.43;;;;;;;10.37;100.00;100473.09;5066270;28;20029;-82
2023/07/25 01:09:45;;;;;;;7.65;5.43;;;;;;;10.33;100.00;100466.47;5072794;28;20070;-81
2023/07/25 01:12:11;;;;;;;6.90;5.28;;;;;;;10.28;100.00;100468.94;5069496;28;20093;-83
2023/07/25 01:14:37;;;;;;;11.68;5.30;;;;;;;10.23;100.00;100469.56;5049785;28;20032;-83
2023/07/25 01:17:09;;;;;;;9.23;6.20;;;;;;;10.18;100.00;100465.81;5073603;28;20029;-84
2023/07/25 01:19:35;;;;;;;13.65;5.93;;;;;;;10.10;100.00;100467.66;5037172;28;20115;-84
2023/07/25 01:22:00;;;;;;;9.40;5.68;;;;;;;10.04;100.00;100465.81;5050220;28;20411;-83
2023/07/25 01:24:26;;;;;;;8.32;5.72;;;;;;;9.99;100.00;100470.94;5036557;28;20401;-83
2023/07/25 01:26:51;;;;;;;5.78;5.18;;;;;;;9.94;100.00;100474.25;5071965;28;20472;-84
2023/07/25 01:29:16;;;;;;;10.95;5.25;;;;;;;9.93;100.00;100471.75;5067906;28;21040;-84
2023/07/25 01:31:42;;;;;;;9.38;5.53;;;;;;;9.89;100.00;100457.88;5070154;28;20024;-81
2023/07/25 01:34:07;;;;;;;7.82;5.40;;;;;;;9.84;100.00;100466.56;5068840;28;20042;-84
2023/07/25 01:36:33;;;;;;;6.30;4.68;;;;;;;9.81;100.00;100461.59;5063628;28;20464;-81
2023/07/25 01:38:58;;;;;;;11.30;6.43;;;;;;;9.77;100.00;100454.13;5064524;28;20025;-81
2023/07/25 01:41:23;;;;;;;7.90;5.90;;;;;;;9.73;100.00;100459.06;5066324;28;20517;-84
2023/07/25 01:43:49;;;;;;;9.93;6.05;;;;;;;9.76;100.00;100461.34;5067316;28;20033;-80
2023/07/25 01:46:14;;;;;;;8.68;6.80;;;;;;;9.78;100.00;100456.63;5073581;28;20396;-82
2023/07/25 01:48:40;;;;;;;8.90;6.15;;;;;;;9.76;100.00;100455.16;5065215;28;20418;-84
2023/07/25 01:51:05;;;;;;;9.82;6.47;;;;;;;9.71;100.00;100450.38;5070407;28;20480;-82
2023/07/25 01:53:30;;;;;;;9.18;5.88;;;;;;;9.73;100.00;100451.00;5067154;28;20086;-82
2023/07/25 01:55:56;;;;;;;7.90;5.97;;;;;;;9.80;100.00;100454.56;5064913;28;20071;-82
2023/07/25 01:58:22;;;;;;;10.15;6.65;;;;;;;9.82;100.00;100457.88;5066626;28;20112;-82
2023/07/25 02:00:47;;;;;;;10.23;6.75;;;;;;;9.73;100.00;100451.00;5063152;28;20078;-82
2023/07/25 02:03:15;;;;;;;7.57;5.53;;;;;;;9.67;100.00;100446.44;5059292;28;20036;-81
2023/07/25 02:05:41;;;;;;;15.52;6.75;;;;;;;9.63;100.00;100439.81;5062471;28;20460;-81
2023/07/25 02:08:08;;;;;;;7.47;5.72;;;;;;;9.60;100.00;100440.22;5062771;28;20084;-81
2023/07/25 02:10:33;;;;;;;10.52;6.20;;;;;;;9.63;100.00;100437.13;5067052;28;20033;-82
2023/07/25 02:12:58;;;;;;;10.38;6.63;;;;;;;9.54;100.00;100439.97;5070287;28;20024;-81
2023/07/25 02:15:24;;;;;;;8.90;6.07;;;;;;;9.49;100.00;100438.91;5064470;28;20021;-82
2023/07/25 02:17:50;;;;;;;8.65;5.65;;;;;;;9.41;100.00;100437.22;5065959;28;20024;-85
2023/07/25 02:20:15;;;;;;;10.30;6.10;;;;;;;9.38;100.00;100433.09;5067109;28;20041;-78
2023/07/25 02:22:41;;;;;;;11.23;7.20;;;;;;;9.47;100.00;100436.44;5061990;28;20483;-83
2023/07/25 02:25:07;;;;;;;11.68;7.05;;;;;;;9.45;100.00;100427.75;5062438;28;20043;-80
2023/07/25 02:27:32;;;;;;;8.30;5.88;;;;;;;9.41;100.00;100431.84;5069397;28;20458;-82
2023/07/25 02:29:58;;;;;;;11.82;7.03;;;;;;;9.44;100.00;100430.66;5071265;28;20017;-84
2023/07/25 02:32:23;;;;;;;10.73;6.75;;;;;;;9.46;100.00;100433.94;5059713;28;20025;-84
2023/07/25 02:34:48;;;;;;;11.85;6.15;;;;;;;9.44;100.00;100430.66;5063433;28;20029;-81
2023/07/25 02:37:14;;;;;;;9.70;6.47;;;;;;;9.38;100.00;100425.03;5073376;28;20097;-83
2023/07/25 02:39:39;;;;;;;9.45;6.22;;;;;;;9.28;100.00;100416.50;5062306;28;20469;-82
2023/07/25 02:42:05;;;;;;;12.27;6.97;;;;;;;9.29;100.00;100420.03;5065235;28;20025;-82
2023/07/25 02:44:30;;;;;;;10.77;6.43;;;;;;;9.23;100.00;100422.47;5063593;28;20557;-83
2023/07/25 02:46:55;;;;;;;10.20;6.13;;;;;;;9.21;100.00;100421.84;5072266;28;20028;-83
2023/07/25 02:49:21;;;;;;;9.30;6.38;;;;;;;9.19;100.00;100420.41;5064536;28;20520;-83
2023/07/25 02:51:47;;;;;;;11.05;6.75;;;;;;;9.23;100.00;100413.59;5072347;28;20028;-83
2023/07/25 02:54:12;;;;;;;9.07;6.43;;;;;;;9.18;100.00;100411.50;5079911;28;20031;-83
2023/07/25 02:56:37;;;;;;;10.05;6.72;;;;;;;9.15;100.00;100413.75;5083309;28;20033;-83
2023/07/25 02:59:03;;;;;;;11.45;6.50;;;;;;;9.11;100.00;100416.00;5083855;28;20032;-83
2023/07/25 03:01:28;;;;;;;8.10;5.97;;;;;;;9.07;100.00;100409.38;5075642;28;20090;-83
2023/07/25 03:03:53;;;;;;;9.75;6.20;;;;;;;9.06;100.00;100407.72;5076119;28;20033;-83
2023/07/25 03:06:19;;;;;;;8.68;6.60;;;;;;;9.10;100.00;100406.31;5066007;28;20027;-83
2023/07/25 03:08:44;;;;;;;10.20;6.22;;;;;;;9.16;100.00;100407.34;5067455;28;20055;-83
2023/07/25 03:11:13;;;;;;;10.07;6.47;;;;;;;9.12;100.00;100415.00;5069676;28;20476;-83
2023/07/25 03:13:38;;;;;;;11.05;5.72;;;;;;;9.13;100.00;100413.13;5069294;28;20108;-83
2023/07/25 03:16:04;;;;;;;10.45;6.35;;;;;;;9.09;100.00;100418.06;5061992;28;20028;-83
2023/07/25 03:18:29;;;;;;;10.43;6.47;;;;;;;9.05;100.00;100414.97;5048939;28;20031;-82
2023/07/25 03:20:54;;;;;;;10.48;6.00;;;;;;;9.18;100.00;100418.72;5066119;28;20645;-83
2023/07/25 03:23:23;;;;;;;10.98;6.38;;;;;;;9.20;100.00;100420.19;5065094;28;20522;-83
2023/07/25 03:25:48;;;;;;;12.48;6.60;;;;;;;9.14;100.00;100422.84;5067716;28;20495;-83
2023/07/25 03:28:14;;;;;;;11.88;6.57;;;;;;;9.07;100.00;100436.22;5046747;28;20033;-83
2023/07/25 03:30:39;;;;;;;9.65;6.65;;;;;;;9.07;100.00;100436.22;5065901;28;20017;-83
2023/07/25 03:33:04;;;;;;;13.32;6.70;;;;;;;9.06;100.00;100432.72;5066250;28;20028;-83
2023/07/25 03:35:30;;;;;;;;;;;;;;;9.10;100.00;100430.47;5064280;28;20029;-83
2023/07/25 03:37:55;;;;;;;9.93;6.50;;;;;;;9.19;100.00;100433.81;5058715;28;19924;-83
2023/07/25 03:40:20;;;;;;;10.35;6.30;;;;;;;9.24;100.00;100436.75;5062008;28;20283;-83
2023/07/25 03:42:46;;;;;;;13.68;6.97;;;;;;;9.27;100.00;100435.50;5058506;28;20045;-83
2023/07/25 03:45:12;;;;;;;9.70;6.90;;;;;;;9.34;100.00;100433.72;5065561;28;20457;-83
2023/07/25 03:47:38;;;;;;;8.93;6.22;;;;;;;9.39;100.00;100433.91;5065108;28;20024;-83
2023/07/25 03:50:03;;;;;;;10.25;6.90;;;;;;;9.35;100.00;100438.06;5061880;28;20492;-83
2023/07/25 03:52:32;;;;;;;8.57;6.20;;;;;;;9.29;100.00;100433.47;5067173;28;20033;-83
2023/07/25 03:54:57;;;;;;;7.75;6.40;;;;;;;9.25;100.00;100441.09;5062748;28;20037;-84
2023/07/25 03:57:26;;;;;;;10.02;6.85;;;;;;;9.20;100.00;100436.28;5068010;28;20070;-83
2023/07/25 03:59:51;;;;;;;11.48;7.45;;;;;;;9.19;100.00;100431.94;5069745;28;20028;-83
2023/07/25 04:02:16;;;;;;;9.70;6.65;;;;;;;9.17;100.00;100428.66;5063224;28;20482;-83
2023/07/25 04:04:42;;;;;;;8.73;6.88;;;;;;;9.19;100.00;100429.25;5064959;28;20028;-83
2023/07/25 04:07:10;;;;;;;11.55;6.70;;;;;;;9.25;100.00;100436.53;5063362;28;20025;-83
2023/07/25 04:09:35;;;;;;;10.90;7.50;;;;;;;9.27;100.00;100427.47;5064298;28;20034;-82
2023/07/25 04:12:00;;;;;;;10.75;7.00;;;;;;;9.28;100.00;100429.13;5064140;28;20024;-88
2023/07/25 04:14:26;;;;;;;13.02;7.93;;;;;;;9.33;100.00;100434.72;5066012;28;20028;-88
2023/07/25 04:16:51;;;;;;;15.70;8.40;;;;;;;9.39;100.00;100429.38;5062456;28;20471;-87
2023/07/25 04:19:16;;;;;;;14.32;7.28;;;;;;;9.46;100.00;100432.09;5058253;28;20484;-79
2023/07/25 04:21:42;;;;;;;12.70;7.22;;;;;;;9.54;100.00;100426.53;5061134;28;20058;-81
2023/07/25 04:24:07;;;;;;;13.55;7.80;;;;;;;9.66;100.00;100426.78;5066629;28;20181;-82
2023/07/25 04:26:33;;;;;;;12.40;7.70;;;;;;;9.79;100.00;100428.69;5063937;28;20086;-82
2023/07/25 04:28:58;;;;;;;15.30;8.07;;;;;;;9.83;100.00;100435.34;5058096;28;20083;-81
2023/07/25 04:31:24;;;;;;;15.68;8.00;;;;;;;9.99;100.00;100430.63;5061079;28;20051;-82
2023/07/25 04:33:49;;;;;;;10.95;7.50;;;;;;;10.00;100.00;100432.28;5066386;28;20429;-84
2023/07/25 04:36:14;;;;;;;11.63;7.68;;;;;;;10.03;100.00;100431.88;5064626;28;20055;-84
2023/07/25 04:38:40;;;;;;;11.82;6.93;;;;;;;10.08;100.00;100434.75;5062909;28;20024;-84
2023/07/25 04:41:05;;;;;;;10.45;6.85;;;;;;;10.15;100.00;100435.63;5061761;28;20037;-84
2023/07/25 04:43:31;;;;;;;12.45;7.60;;;;;;;10.25;100.00;100431.69;5058556;28;20492;-82
2023/07/25 04:45:56;;;;;;;13.48;7.35;;;;;;;10.34;100.00;100437.69;5064627;28;20029;-84
2023/07/25 04:48:22;;;;;;;10.75;7.03;;;;;;;10.38;100.00;100444.31;5060524;28;20025;-84
2023/07/25 04:50:47;;;;;;;11.00;7.35;;;;;;;10.48;100.00;100441.25;5052396;28;20036;-84
2023/07/25 04:53:15;;;;;;;11.55;6.78;;;;;;;10.49;100.00;100435.69;5068290;28;20024;-84
2023/07/25 04:55:40;;;;;;;10.10;7.05;;;;;;;10.55;100.00;100439.41;5064120;28;20028;-84
2023/07/25 04:58:06;;;;;;;8.73;6.55;;;;;;;10.65;100.00;100437.13;5059382;28;20029;-84
2023/07/25 05:00:32;;;;;;;9.90;6.80;;;;;;;10.76;100.00;100441.91;5054867;28;20028;-84
2023/07/25 05:02:57;;;;;;;12.70;6.50;;;;;;;10.85;100.00;100437.13;5063739;28;20035;-84
2023/07/25 05:05:23;;;;;;;8.95;6.10;;;;;;;10.94;100.00;100432.34;5063644;28;20040;-83
2023/07/25 05:07:48;;;;;;;9.85;6.78;;;;;;;10.96;100.00;100441.00;5069157;28;20036;-85
2023/07/25 05:10:14;;;;;;;9.77;6.22;;;;;;;11.07;100.00;100440.38;5070602;28;20033;-85
2023/07/25 05:12:39;;;;;;;12.43;6.38;;;;;;;11.21;100.00;100443.03;5067408;28;20143;-84
2023/07/25 05:15:05;;;;;;;8.23;6.38;;;;;;;11.56;100.00;100442.72;5074523;28;20472;-84
2023/07/25 05:17:30;;;;;;;8.65;5.70;;;;;;;12.18;100.00;100442.19;5062760;28;20040;-83
2023/07/25 05:19:56;;;;;;;7.43;5.55;;;;;;;12.91;98.39;100441.84;5064360;28;20025;-84
2023/07/25 05:22:21;;;;;;;6.63;4.65;;;;;;;13.35;91.48;100448.84;5072235;28;20028;-85
2023/07/25 05:24:47;;;;;;;5.05;4.25;;;;;;;13.61;88.65;100451.50;5059142;28;20039;-85
2023/07/25 05:27:12;;;;;;;7.93;4.82;;;;;;;13.86;86.31;100458.69;5060615;28;20043;-85
2023/07/25 05:29:38;;;;;;;9.50;4.72;;;;;;;13.81;84.79;100453.97;5062696;28;20051;-85
2023/07/25 05:32:04;;;;;;;7.25;5.07;;;;;;;13.98;85.27;100451.44;5061394;28;20560;-84
2023/07/25 05:34:29;;;;;;;8.75;4.40;;;;;;;14.48;82.98;100444.03;5065812;28;20090;-84
2023/07/25 05:36:54;;;;;;;9.85;4.72;;;;;;;14.50;83.56;100450.03;5066548;28;20032;-84
2023/07/25 05:39:20;;;;;;;10.50;4.72;;;;;;;14.34;82.84;100443.44;5070820;28;20035;-84
2023/07/25 05:41:45;;;;;;;7.38;4.68;;;;;;;14.47;82.92;100442.41;5070095;28;20369;-84
2023/07/25 05:44:10;;;;;;;6.13;4.00;;;;;;;14.76;81.81;100440.69;5066613;28;20045;-84
2023/07/25 05:46:36;;;;;;;6.40;4.05;;;;;;;14.73;80.73;100434.91;5063238;28;20465;-84
2023/07/25 05:49:02;;;;;;;5.43;3.63;;;;;;;15.27;79.14;100437.47;5059667;28;20050;-84
2023/07/25 05:51:30;;;;;;;6.20;3.97;;;;;;;15.25;78.70;100436.91;5057886;28;20033;-84
2023/07/25 05:53:56;;;;;;;8.77;3.90;;;;;;;15.24;78.82;100436.06;5062287;28;20035;-84
2023/07/25 05:56:21;;;;;;;6.70;4.00;;;;;;;15.09;78.77;100441.16;5061058;28;20036;-84
2023/07/25 05:58:46;;;;;;;4.45;3.53;;;;;;;14.92;80.77;100444.56;5068817;28;20438;-84
2023/07/25 06:01:12;;;;;;;9.90;3.40;;;;;;;14.86;79.06;100445.50;5065150;28;20031;-84
2023/07/25 06:03:37;;;;;;;7.68;3.97;;;;;;;14.53;81.35;100444.16;5069794;28;20036;-83
2023/07/25 06:06:03;;;;;;;8.02;3.70;;;;;;;14.99;81.52;100448.00;5068802;28;20029;-82
2023/07/25 06:08:28;;;;;;;5.18;3.30;;;;;;;15.70;76.45;100448.94;5067936;28;20414;-83
2023/07/25 06:10:54;;;;;;;6.80;3.55;;;;;;;16.32;74.54;100439.22;5066733;28;20028;-83
2023/07/25 06:13:20;;;;;;;6.50;2.75;;;;;;;17.56;71.39;100441.03;5053489;28;20043;-82
2023/07/25 06:15:46;;;;;;;6.10;3.20;;;;;;;18.28;70.16;100446.41;5066614;28;20055;-82
2023/07/25 06:18:12;;;;;;;8.63;3.03;;;;;;;18.69;66.12;100440.50;5063860;28;20064;-83
2023/07/25 06:20:37;;;;;;;7.55;2.90;;;;;;;19.73;64.10;100442.69;5073015;28;20028;-83
2023/07/25 06:23:03;;;;;;;7.40;2.88;;;;;;;19.66;62.23;100444.84;5060310;28;20032;-83
2023/07/25 06:25:28;;;;;;;6.40;2.50;;;;;;;19.88;62.92;100457.50;5066332;28;20029;-83
2023/07/25 06:27:54;;;;;;;6.80;2.72;;;;;;;20.45;60.91;100448.31;5061320;28;20024;-83
2023/07/25 06:30:19;;;;;;;5.68;2.67;;;;;;;21.02;58.95;100447.44;5076714;28;20013;-83
2023/07/25 06:32:45;;;;;;;5.32;2.50;;;;;;;21.32;56.33;100449.28;5095611;28;20023;-83
2023/07/25 06:35:10;;;;;;;5.72;2.63;;;;;;;21.50;60.25;100460.72;5063877;28;20037;-84
2023/07/25 06:37:36;;;;;;;8.98;2.88;;;;;;;22.07;58.78;100457.69;5073679;28;20033;-83
2023/07/25 06:40:01;;;;;;;6.13;2.28;;;;;;;22.79;52.11;100462.63;5074364;28;20071;-84
2023/07/25 06:42:30;;;;;;;4.70;2.05;;;;;;;23.15;52.52;100459.50;5069649;28;20534;-84
2023/07/25 06:44:56;;;;;;;5.43;2.30;;;;;;;23.29;50.04;100462.41;5067210;28;20029;-84
2023/07/25 06:47:21;;;;;;;7.00;2.28;;;;;;;23.04;49.88;100463.47;5062260;28;20028;-85
2023/07/25 06:49:47;;;;;;;6.38;2.03;;;;;;;22.74;52.26;100462.69;5062855;28;20039;-85
2023/07/25 06:52:12;;;;;;;6.75;1.98;;;;;;;23.14;53.23;100460.63;5064261;28;20066;-85
2023/07/25 06:54:38;;;;;;;4.43;2.00;;;;;;;22.97;52.13;100463.00;5070275;28;20068;-85
2023/07/25 06:57:03;;;;;;;5.22;1.92;;;;;;;23.38;51.37;100459.84;5069985;28;20030;-84
2023/07/25 06:59:29;;;;;;;6.60;1.90;;;;;;;22.41;52.78;100463.19;5072835;28;20035;-84
2023/07/25 07:01:55;;;;;;;6.63;2.03;;;;;;;21.87;55.44;100461.38;5059498;28;20043;-84
2023/07/25 07:04:27;;;;;;;9.20;2.50;;;;;;;22.12;55.44;100457.66;5068036;28;20111;-85
2023/07/25 07:06:52;;;;;;;7.20;2.20;;;;;;;21.04;55.97;100459.75;5061314;28;20017;-85
2023/07/25 07:09:18;;;;;;;6.00;2.03;;;;;;;21.31;56.12;100458.59;5068852;28;20043;-84
2023/07/25 07:11:43;;;;;;;5.60;2.08;;;;;;;21.00;55.53;100463.31;5067868;28;20472;-84
2023/07/25 07:14:08;;;;;;;4.25;1.98;;;;;;;20.98;56.32;100460.88;5069405;28;20024;-84
2023/07/25 07:16:34;;;;;;;7.20;2.30;;;;;;;21.50;57.44;100468.94;5063946;28;20035;-84
2023/07/25 07:18:59;;;;;;;6.53;2.30;;;;;;;21.53;54.01;100464.78;5060170;28;20041;-84
2023/07/25 07:21:24;;;;;;;4.93;2.00;;;;;;;21.73;54.51;100470.22;5065727;28;20442;-84
2023/07/25 07:23:50;;;;;;;9.68;2.58;;;;;;;20.93;54.77;100468.25;5065903;28;20051;-84
2023/07/25 07:26:15;;;;;;;7.07;2.40;;;;;;;20.24;56.73;100476.72;5065370;28;20090;-84
2023/07/25 07:28:41;;;;;;;5.13;2.30;;;;;;;19.42;58.53;100478.06;5068515;28;20028;-84
2023/07/25 07:31:09;;;;;;;9.18;3.30;;;;;;;18.68;60.01;100479.75;5065825;28;20503;-84
2023/07/25 07:33:34;;;;;;;7.20;2.47;;;;;;;18.28;63.27;100485.41;5065990;28;20043;-84
2023/07/25 07:36:02;;;;;;;6.82;2.40;;;;;;;18.20;63.63;100474.16;5065318;28;20021;-83
2023/07/25 07:38:28;;;;;;;6.25;2.30;;;;;;;18.38;63.85;100478.41;5068410;28;20460;-84
2023/07/25 07:40:53;;;;;;;7.63;2.80;;;;;;;18.56;63.50;100480.75;5063333;28;20039;-83
2023/07/25 07:43:18;;;;;;;6.22;2.42;;;;;;;18.56;63.16;100488.91;5067709;28;20093;-84
2023/07/25 07:45:44;;;;;;;8.35;2.60;;;;;;;18.80;63.46;100494.03;5063444;28;20434;-83
2023/07/25 07:48:09;;;;;;;6.90;2.42;;;;;;;19.01;63.23;100486.03;5060194;28;20044;-84
2023/07/25 07:50:35;;;;;;;6.68;2.53;;;;;;;18.86;62.10;100506.63;5064185;28;20487;-84
2023/07/25 07:53:00;;;;;;;7.97;2.20;;;;;;;18.73;61.45;100496.13;5060396;28;20460;-83
2023/07/25 07:55:25;;;;;;;4.78;2.00;;;;;;;18.63;63.48;100502.31;5068809;28;20028;-83
2023/07/25 07:57:51;;;;;;;6.82;2.30;;;;;;;18.40;63.53;100501.59;5060674;28;20032;-83
2023/07/25 08:00:16;;;;;;;6.25;2.55;;;;;;;18.48;62.48;100511.22;5060754;28;20158;-84
2023/07/25 08:02:42;;;;;;;7.22;2.20;;;;;;;18.54;63.33;100521.06;5065636;28;20502;-83
2023/07/25 08:05:08;;;;;;;8.35;2.85;;;;;;;18.41;63.31;100516.03;5071509;28;20024;-83
2023/07/25 08:07:33;;;;;;;6.35;2.55;;;;;;;18.22;63.43;100521.03;5054001;28;20029;-83
2023/07/25 08:09:59;;;;;;;8.93;2.60;;;;;;;17.82;66.46;100514.84;5061484;28;20047;-83
2023/07/25 08:12:24;;;;;;;9.90;2.20;;;;;;;18.00;64.63;100514.53;5056975;28;20052;-83
2023/07/25 08:14:50;;;;;;;6.57;2.20;;;;;;;18.10;64.86;100515.72;5061641;28;20355;-83
2023/07/25 08:17:15;;;;;;;9.07;3.10;;;;;;;17.97;64.74;100530.53;5061837;28;20021;-83
2023/07/25 08:19:41;;;;;;;6.50;2.55;;;;;;;17.46;65.94;100530.72;5066642;28;20024;-83
2023/07/25 08:22:07;;;;;;;9.73;2.55;;;;;;;17.13;65.03;100534.03;5067731;28;20446;-82
2023/07/25 08:24:32;;;;;;;7.13;2.75;;;;;;;16.96;67.21;100534.06;5067273;28;20512;-83
2023/07/25 08:26:59;;;;;;;11.40;3.00;;;;;;;16.93;69.55;100536.44;5062987;28;20029;-83
2023/07/25 08:29:25;;;;;;;5.10;2.17;;;;;;;16.96;69.71;100542.22;5043689;28;20465;-83
2023/07/25 08:31:50;;;;;;;5.47;2.13;;;;;;;17.23;68.11;100546.16;5068986;28;20103;-83
2023/07/25 08:34:16;;;;;;;6.45;2.20;;;;;;;17.38;66.33;100542.84;5058351;28;20028;-83
2023/07/25 08:36:41;;;;;;;5.90;2.10;;;;;;;17.38;63.68;100554.56;5063953;28;20054;-83
2023/07/25 08:39:06;;;;;;;2.97;1.80;;;;;;;17.62;64.77;100554.34;5071215;28;20107;-83
2023/07/25 08:41:35;;;;;;;5.32;1.90;;;;;;;17.53;64.10;100553.94;5053570;28;20021;-83
2023/07/25 08:44:01;;;;;;;6.20;1.90;;;;;;;17.62;65.44;100559.78;5071994;28;20051;-82
2023/07/25 08:46:27;;;;;;;8.15;2.13;;;;;;;17.85;66.63;100566.06;5056958;28;20680;-83
2023/07/25 08:48:52;;;;;;;3.75;1.80;;;;;;;17.94;65.11;100572.72;5047840;28;20372;-84
2023/07/25 08:51:22;;;;;;;4.07;1.55;;;;;;;17.86;61.17;100570.41;5051192;28;20029;-83
2023/07/25 08:54:00;;;;;;;3.00;1.60;;;;;;;17.53;63.71;100573.00;5070529;28;20028;-82
2023/07/25 08:56:25;;;;;;;3.83;1.48;;;;;;;17.26;63.26;100567.44;5046999;28;20078;-83
2023/07/25 08:58:51;;;;;;;4.93;1.70;;;;;;;16.85;67.13;100574.91;5029875;28;20384;-84
2023/07/25 09:01:16;;;;;;;7.68;1.83;;;;;;;16.60;66.23;100566.06;5023160;28;20101;-83
2023/07/25 09:03:41;;;;;;;5.60;1.92;;;;;;;16.61;66.63;100566.88;5047174;28;20469;-83
2023/07/25 09:06:07;;;;;;;5.47;1.60;;;;;;;15.99;67.65;100571.13;5041245;28;20392;-84
2023/07/25 09:08:32;;;;;;;4.25;1.70;;;;;;;15.87;68.91;100577.44;5023970;28;20413;-83
2023/07/25 09:10:58;;;;;;;5.10;1.50;;;;;;;16.16;66.31;100571.19;5067492;28;20028;-83
2023/07/25 09:13:24;;;;;;;3.63;1.60;;;;;;;16.11;69.11;100579.25;5048693;28;20469;-83
2023/07/25 09:15:49;;;;;;;9.50;2.00;;;;;;;16.36;68.18;100579.72;5027593;28;20036;-83
2023/07/25 09:18:15;;;;;;;4.53;1.80;;;;;;;16.37;65.84;100572.44;5064336;28;20025;-83
2023/07/25 09:20:40;;;;;;;5.03;1.63;;;;;;;16.73;68.61;100575.78;5072287;28;20033;-84
2023/07/25 09:23:05;;;;;;;5.18;1.60;;;;;;;16.70;65.20;100559.97;5044278;28;20081;-83
2023/07/25 09:25:31;;;;;;;4.13;1.40;;;;;;;17.10;63.28;100567.19;5066166;28;20532;-83
2023/07/25 09:27:56;;;;;;;5.13;1.65;;;;;;;17.33;64.75;100562.63;5062246;28;20039;-83
2023/07/25 09:30:25;;;;;;;5.20;1.70;;;;;;;17.66;63.35;100573.72;5062044;28;20434;-84
2023/07/25 09:32:51;;;;;;;5.18;1.55;;;;;;;17.54;63.37;100568.38;5061824;28;20079;-83
2023/07/25 09:35:16;;;;;;;4.10;1.45;;;;;;;17.99;62.17;100574.72;5063371;28;20033;-83
2023/07/25 09:37:51;;;;;;;3.70;1.60;;;;;;;18.07;61.93;100577.00;5063498;28;20037;-84
2023/07/25 09:40:16;;;;;;;5.32;1.60;;;;;;;18.29;62.03;100584.31;5062215;28;20044;-83
2023/07/25 09:42:41;;;;;;;6.13;1.75;;;;;;;18.32;59.50;100579.19;5069621;28;20041;-83
2023/07/25 09:45:11;;;;;;;4.03;1.60;;;;;;;18.01;58.77;100570.63;5074219;28;20117;-83
2023/07/25 09:47:37;;;;;;;7.90;1.60;;;;;;;17.84;60.34;100569.84;5056511;28;20016;-83
2023/07/25 09:50:04;;;;;;;8.48;1.90;;;;;;;18.53;62.63;100579.41;5054994;28;20075;-83
2023/07/25 09:52:49;;;;;;;5.95;1.77;;;;;;;18.86;58.95;100572.09;5060483;28;20025;-83
2023/07/25 09:55:15;;;;;;;3.42;1.50;;;;;;;20.20;53.93;100577.56;5052043;28;20110;-83
2023/07/25 09:57:43;;;;;;;5.45;1.67;;;;;;;20.20;53.00;100569.38;5069866;28;20017;-83
2023/07/25 10:00:09;;;;;;;5.72;1.90;;;;;;;20.32;55.23;100569.09;5063112;28;20059;-83
2023/07/25 10:02:34;;;;;;;4.18;1.40;;;;;;;20.60;51.84;100567.78;5056151;28;20025;-83
2023/07/25 10:05:00;;;;;;;4.63;1.73;;;;;;;20.43;51.93;100565.31;5044840;28;20046;-83
2023/07/25 10:07:25;;;;;;;9.88;1.80;;;;;;;20.32;53.81;100566.38;5074539;28;20024;-84
2023/07/25 10:09:55;;;;;;;5.72;1.70;;;;;;;20.01;56.61;100569.00;5058882;28;20023;-83
2023/07/25 10:12:20;;;;;;;7.50;1.88;;;;;;;20.24;53.15;100566.91;5071388;28;20051;-83
2023/07/25 10:14:45;;;;;;;4.53;1.90;;;;;;;21.36;52.33;100559.84;5065867;28;20025;-83
2023/07/25 10:17:11;;;;;;;5.28;1.70;;;;;;;22.13;53.30;100557.97;5040075;28;20025;-82
2023/07/25 10:19:53;;;;;;;5.15;1.33;;;;;;;23.55;44.39;100554.69;5068004;28;20404;-82
2023/07/25 10:22:37;;;;;;;4.45;1.30;;;;;;;25.07;42.12;100561.38;5057415;28;20090;-82
2023/07/25 10:25:09;;;;;;;5.20;1.60;;;;;;;24.36;42.61;100556.72;5063133;28;20079;-82
2023/07/25 10:27:34;;;;;;;4.07;1.38;;;;;;;23.38;44.72;100558.72;5041451;28;20074;-83
2023/07/25 10:30:02;;;;;;;6.13;1.52;;;;;;;23.54;42.61;100556.63;5042939;28;20483;-82
2023/07/25 10:32:44;;;;;;;4.18;1.42;;;;;;;24.54;44.49;100557.81;5072697;28;20051;-82
2023/07/25 10:35:09;;;;;;;7.35;1.63;;;;;;;24.76;45.94;100554.47;5056401;28;20353;-82
2023/07/25 10:37:40;;;;;;;5.43;1.70;;;;;;;24.61;43.22;100551.94;5058995;28;20040;-81
2023/07/25 10:40:15;;;;;;;5.07;1.42;;;;;;;25.70;44.74;100554.44;5039102;28;20036;-80
2023/07/25 10:42:46;;;;;;;5.05;1.40;;;;;;;25.31;43.53;100552.16;5068432;28;20051;-82
2023/07/25 10:45:29;;;;;;;5.47;1.42;;;;;;;23.80;45.18;100553.56;5070926;28;20040;-80
2023/07/25 10:47:55;;;;;;;4.20;1.27;;;;;;;23.54;44.19;100553.06;5053848;28;20071;-82
2023/07/25 10:50:28;;;;;;;5.13;1.20;;;;;;;22.91;46.21;100541.03;5056288;28;20029;-80
2023/07/25 10:52:53;;;;;;;5.07;1.42;;;;;;;22.00;45.97;100544.91;5065078;28;20031;-82
2023/07/25 10:55:19;;;;;;;3.53;1.35;;;;;;;21.88;46.22;100545.22;5053345;28;20033;-81
2023/07/25 10:58:09;;;;;;;3.58;1.40;;;;;;;21.28;47.78;100530.31;5056919;28;20460;-80
2023/07/25 11:00:36;;;;;;;5.00;1.30;;;;;;;22.23;47.26;100536.00;5071669;28;20071;-80
2023/07/25 11:03:29;;;;;;;2.42;1.13;;;;;;;23.81;43.03;100532.41;5057306;28;20430;-80
2023/07/25 11:06:07;;;;;;;4.82;1.20;;;;;;;25.03;37.92;100535.59;5059111;28;20048;-80
2023/07/25 11:08:41;;;;;;;3.88;1.15;;;;;;;25.43;36.70;100535.97;5061055;28;20033;-80
2023/07/25 11:11:11;;;;;;;2.90;1.10;;;;;;;26.59;37.38;100534.84;5068092;28;20419;-80
2023/07/25 11:13:38;;;;;;;5.10;1.10;;;;;;;27.85;35.25;100536.81;5063254;28;20032;-79
2023/07/25 11:16:04;;;;;;;2.03;1.00;;;;;;;27.18;34.95;100527.63;5063292;28;20029;-81
2023/07/25 11:18:33;;;;;;;2.30;1.33;;;;;;;26.27;35.28;100525.66;5071433;28;20028;-80